sensor_id;sensor_type;location;lat;lon;timestamp;P1;durP1;ratioP1;P2;durP2;ratioP2
33690;SDS011;20026;50.058;18.428;2023-12-20T01:05:44;14.32;;;9.15;;
33690;SDS011;20026;50.058;18.428;2023-12-20T01:08:12;18.88;;;11.77;;
33690;SDS011;20026;50.058;18.428;2023-12-20T01:10:39;22.83;;;14.80;;
33690;SDS011;20026;50.058;18.428;2023-12-20T01:13:06;13.85;;;8.57;;
33690;SDS011;20026;50.058;18.428;2023-12-20T01:15:33;15.15;;;11.35;;
33690;SDS011;20026;50.058;18.428;2023-12-20T01:18:01;25.27;;;17.55;;
33690;SDS011;20026;50.058;18.428;2023-12-20T01:20:27;11.90;;;7.68;;
33690;SDS011;20026;50.058;18.428;2023-12-20T01:22:55;14.35;;;9.20;;
33690;SDS011;20026;50.058;18.428;2023-12-20T01:25:23;15.43;;;9.32;;
33690;SDS011;20026;50.058;18.428;2023-12-20T01:27:49;11.32;;;7.28;;
33690;SDS011;20026;50.058;18.428;2023-12-20T01:30:17;12.10;;;7.85;;
33690;SDS011;20026;50.058;18.428;2023-12-20T01:32:44;12.70;;;7.63;;
33690;SDS011;20026;50.058;18.428;2023-12-20T01:35:14;13.82;;;7.45;;
33690;SDS011;20026;50.058;18.428;2023-12-20T01:37:41;15.10;;;8.70;;
33690;SDS011;20026;50.058;18.428;2023-12-20T02:53:51;16.13;;;9.85;;
33690;SDS011;20026;50.058;18.428;2023-12-20T02:56:17;16.08;;;10.13;;
33690;SDS011;20026;50.058;18.428;2023-12-20T02:58:43;13.18;;;9.75;;
33690;SDS011;20026;50.058;18.428;2023-12-20T03:01:09;20.95;;;14.70;;
33690;SDS011;20026;50.058;18.428;2023-12-20T03:03:35;29.75;;;22.38;;
33690;SDS011;20026;50.058;18.428;2023-12-20T03:06:01;24.70;;;16.63;;
33690;SDS011;20026;50.058;18.428;2023-12-20T03:08:27;36.33;;;23.70;;
33690;SDS011;20026;50.058;18.428;2023-12-20T03:10:53;35.15;;;26.45;;
33690;SDS011;20026;50.058;18.428;2023-12-20T09:02:04;99.05;;;55.75;;
33690;SDS011;20026;50.058;18.428;2023-12-20T09:04:30;92.50;;;52.42;;
33690;SDS011;20026;50.058;18.428;2023-12-20T09:06:56;100.88;;;54.42;;
33690;SDS011;20026;50.058;18.428;2023-12-20T09:09:22;94.72;;;52.25;;
33690;SDS011;20026;50.058;18.428;2023-12-20T09:11:48;89.47;;;48.40;;
33690;SDS011;20026;50.058;18.428;2023-12-20T09:14:16;90.40;;;49.63;;
33690;SDS011;20026;50.058;18.428;2023-12-20T09:16:42;88.20;;;47.28;;
33690;SDS011;20026;50.058;18.428;2023-12-20T09:19:08;95.60;;;49.20;;
33690;SDS011;20026;50.058;18.428;2023-12-20T09:21:34;86.82;;;46.15;;
33690;SDS011;20026;50.058;18.428;2023-12-20T09:24:00;89.10;;;48.13;;
33690;SDS011;20026;50.058;18.428;2023-12-20T09:26:26;86.68;;;48.08;;
33690;SDS011;20026;50.058;18.428;2023-12-20T09:28:52;87.70;;;47.72;;
33690;SDS011;20026;50.058;18.428;2023-12-20T09:31:18;85.20;;;49.67;;
33690;SDS011;20026;50.058;18.428;2023-12-20T09:33:44;90.80;;;49.40;;
33690;SDS011;20026;50.058;18.428;2023-12-20T09:36:10;104.63;;;59.88;;
33690;SDS011;20026;50.058;18.428;2023-12-20T09:38:37;167.18;;;108.05;;
33690;SDS011;20026;50.058;18.428;2023-12-20T09:41:03;169.57;;;92.10;;
33690;SDS011;20026;50.058;18.428;2023-12-20T09:43:30;218.65;;;126.68;;
33690;SDS011;20026;50.058;18.428;2023-12-20T09:45:57;293.63;;;150.45;;
33690;SDS011;20026;50.058;18.428;2023-12-20T09:48:27;412.73;;;176.93;;
33690;SDS011;20026;50.058;18.428;2023-12-20T09:50:54;389.02;;;185.68;;
33690;SDS011;20026;50.058;18.428;2023-12-20T09:53:20;503.52;;;252.48;;
33690;SDS011;20026;50.058;18.428;2023-12-20T09:55:48;418.60;;;214.93;;
33690;SDS011;20026;50.058;18.428;2023-12-20T09:58:14;208.88;;;113.25;;
33690;SDS011;20026;50.058;18.428;2023-12-20T10:00:41;272.15;;;131.93;;
33690;SDS011;20026;50.058;18.428;2023-12-20T10:03:07;296.40;;;129.25;;
33690;SDS011;20026;50.058;18.428;2023-12-20T10:05:34;252.02;;;122.20;;
33690;SDS011;20026;50.058;18.428;2023-12-20T10:08:00;180.90;;;92.18;;
33690;SDS011;20026;50.058;18.428;2023-12-20T10:10:27;267.80;;;103.47;;
33690;SDS011;20026;50.058;18.428;2023-12-20T10:13:09;210.27;;;91.75;;
33690;SDS011;20026;50.058;18.428;2023-12-20T10:15:36;196.52;;;90.32;;
33690;SDS011;20026;50.058;18.428;2023-12-20T10:18:02;218.48;;;96.60;;
33690;SDS011;20026;50.058;18.428;2023-12-20T10:20:29;218.85;;;91.43;;
33690;SDS011;20026;50.058;18.428;2023-12-20T10:22:55;163.93;;;74.40;;
33690;SDS011;20026;50.058;18.428;2023-12-20T10:25:22;181.18;;;72.28;;
33690;SDS011;20026;50.058;18.428;2023-12-20T10:27:48;142.15;;;65.15;;
33690;SDS011;20026;50.058;18.428;2023-12-20T10:30:15;141.38;;;58.72;;
33690;SDS011;20026;50.058;18.428;2023-12-20T10:32:41;138.77;;;63.47;;
33690;SDS011;20026;50.058;18.428;2023-12-20T10:35:08;118.07;;;56.85;;
33690;SDS011;20026;50.058;18.428;2023-12-20T10:37:35;110.30;;;52.95;;
33690;SDS011;20026;50.058;18.428;2023-12-20T10:40:02;118.25;;;54.58;;
33690;SDS011;20026;50.058;18.428;2023-12-20T10:42:29;102.32;;;51.55;;
33690;SDS011;20026;50.058;18.428;2023-12-20T10:44:55;111.53;;;57.40;;
33690;SDS011;20026;50.058;18.428;2023-12-20T10:47:22;104.53;;;50.08;;
33690;SDS011;20026;50.058;18.428;2023-12-20T10:49:50;103.68;;;50.05;;
33690;SDS011;20026;50.058;18.428;2023-12-20T10:52:17;89.40;;;46.78;;
33690;SDS011;20026;50.058;18.428;2023-12-20T10:54:44;405.75;;;195.77;;
33690;SDS011;20026;50.058;18.428;2023-12-20T10:57:11;135.05;;;80.93;;
33690;SDS011;20026;50.058;18.428;2023-12-20T10:59:37;134.55;;;74.38;;
33690;SDS011;20026;50.058;18.428;2023-12-20T11:02:04;178.38;;;102.80;;
33690;SDS011;20026;50.058;18.428;2023-12-20T11:04:38;184.48;;;100.93;;
33690;SDS011;20026;50.058;18.428;2023-12-20T11:07:08;208.23;;;110.97;;
33690;SDS011;20026;50.058;18.428;2023-12-20T11:09:41;314.67;;;164.65;;
33690;SDS011;20026;50.058;18.428;2023-12-20T11:14:40;523.28;;;285.70;;
33690;SDS011;20026;50.058;18.428;2023-12-20T11:17:11;477.08;;;249.65;;
33690;SDS011;20026;50.058;18.428;2023-12-20T11:22:27;182.25;;;97.95;;
33690;SDS011;20026;50.058;18.428;2023-12-20T11:24:53;272.15;;;177.60;;
33690;SDS011;20026;50.058;18.428;2023-12-20T11:27:20;167.55;;;112.32;;
33690;SDS011;20026;50.058;18.428;2023-12-20T11:29:54;121.40;;;78.03;;
33690;SDS011;20026;50.058;18.428;2023-12-20T11:37:37;133.27;;;76.85;;
33690;SDS011;20026;50.058;18.428;2023-12-20T11:40:08;124.47;;;73.22;;
33690;SDS011;20026;50.058;18.428;2023-12-20T11:42:50;108.97;;;62.42;;
33690;SDS011;20026;50.058;18.428;2023-12-20T11:45:21;88.57;;;50.53;;
33690;SDS011;20026;50.058;18.428;2023-12-20T11:50:15;87.28;;;49.60;;
33690;SDS011;20026;50.058;18.428;2023-12-20T11:52:41;85.50;;;49.90;;
33690;SDS011;20026;50.058;18.428;2023-12-20T11:55:07;89.53;;;48.90;;
33690;SDS011;20026;50.058;18.428;2023-12-20T11:57:33;95.43;;;55.80;;
33690;SDS011;20026;50.058;18.428;2023-12-20T11:59:59;79.00;;;46.28;;
33690;SDS011;20026;50.058;18.428;2023-12-20T12:02:25;64.05;;;38.83;;
33690;SDS011;20026;50.058;18.428;2023-12-20T12:04:51;69.13;;;40.65;;
33690;SDS011;20026;50.058;18.428;2023-12-20T12:07:17;62.80;;;36.92;;
33690;SDS011;20026;50.058;18.428;2023-12-20T12:09:44;83.75;;;53.28;;
33690;SDS011;20026;50.058;18.428;2023-12-20T12:12:10;75.45;;;47.38;;
33690;SDS011;20026;50.058;18.428;2023-12-20T12:14:37;79.70;;;46.47;;
33690;SDS011;20026;50.058;18.428;2023-12-20T12:17:03;69.47;;;43.20;;
33690;SDS011;20026;50.058;18.428;2023-12-20T12:19:30;72.15;;;38.92;;
33690;SDS011;20026;50.058;18.428;2023-12-20T12:22:07;73.90;;;43.40;;
33690;SDS011;20026;50.058;18.428;2023-12-20T12:24:41;70.70;;;43.03;;
33690;SDS011;20026;50.058;18.428;2023-12-20T12:27:07;61.35;;;38.15;;
33690;SDS011;20026;50.058;18.428;2023-12-20T12:29:34;62.20;;;37.63;;
33690;SDS011;20026;50.058;18.428;2023-12-20T12:32:00;75.72;;;43.60;;
33690;SDS011;20026;50.058;18.428;2023-12-20T12:34:27;66.55;;;38.70;;
33690;SDS011;20026;50.058;18.428;2023-12-20T12:36:54;73.75;;;45.13;;
33690;SDS011;20026;50.058;18.428;2023-12-20T12:39:20;72.88;;;41.95;;
33690;SDS011;20026;50.058;18.428;2023-12-20T12:41:46;76.20;;;45.38;;
33690;SDS011;20026;50.058;18.428;2023-12-20T12:44:12;83.50;;;52.38;;
33690;SDS011;20026;50.058;18.428;2023-12-20T12:46:38;97.55;;;58.13;;
33690;SDS011;20026;50.058;18.428;2023-12-20T12:49:05;100.13;;;57.28;;
33690;SDS011;20026;50.058;18.428;2023-12-20T12:51:31;88.63;;;57.25;;
33690;SDS011;20026;50.058;18.428;2023-12-20T12:53:57;75.93;;;46.85;;
33690;SDS011;20026;50.058;18.428;2023-12-20T12:56:23;58.05;;;40.00;;
33690;SDS011;20026;50.058;18.428;2023-12-20T12:58:49;69.38;;;49.88;;
33690;SDS011;20026;50.058;18.428;2023-12-20T13:01:15;64.80;;;43.97;;
33690;SDS011;20026;50.058;18.428;2023-12-20T13:03:41;61.97;;;39.80;;
33690;SDS011;20026;50.058;18.428;2023-12-20T13:06:07;57.70;;;36.42;;
33690;SDS011;20026;50.058;18.428;2023-12-20T13:08:34;86.90;;;46.33;;
33690;SDS011;20026;50.058;18.428;2023-12-20T13:11:00;79.65;;;40.83;;
33690;SDS011;20026;50.058;18.428;2023-12-20T13:13:29;80.47;;;41.53;;
33690;SDS011;20026;50.058;18.428;2023-12-20T13:15:55;72.90;;;39.92;;
33690;SDS011;20026;50.058;18.428;2023-12-20T13:18:21;102.63;;;56.88;;
33690;SDS011;20026;50.058;18.428;2023-12-20T13:20:48;82.95;;;47.38;;
33690;SDS011;20026;50.058;18.428;2023-12-20T13:23:14;97.65;;;55.42;;
33690;SDS011;20026;50.058;18.428;2023-12-20T13:25:41;96.15;;;57.47;;
33690;SDS011;20026;50.058;18.428;2023-12-20T13:28:07;124.93;;;67.63;;
33690;SDS011;20026;50.058;18.428;2023-12-20T13:30:33;114.32;;;62.20;;
33690;SDS011;20026;50.058;18.428;2023-12-20T13:33:00;108.93;;;59.25;;
33690;SDS011;20026;50.058;18.428;2023-12-20T13:35:26;136.38;;;73.82;;
33690;SDS011;20026;50.058;18.428;2023-12-20T13:37:52;101.30;;;58.47;;
33690;SDS011;20026;50.058;18.428;2023-12-20T13:40:18;109.95;;;66.35;;
33690;SDS011;20026;50.058;18.428;2023-12-20T13:42:45;174.60;;;104.13;;
33690;SDS011;20026;50.058;18.428;2023-12-20T13:45:11;273.85;;;97.25;;
33690;SDS011;20026;50.058;18.428;2023-12-20T13:47:37;198.80;;;122.70;;
33690;SDS011;20026;50.058;18.428;2023-12-20T13:50:03;106.75;;;65.03;;
33690;SDS011;20026;50.058;18.428;2023-12-20T13:52:30;92.45;;;54.80;;
33690;SDS011;20026;50.058;18.428;2023-12-20T13:54:56;85.60;;;50.33;;
33690;SDS011;20026;50.058;18.428;2023-12-20T13:57:22;76.43;;;43.20;;
33690;SDS011;20026;50.058;18.428;2023-12-20T13:59:48;64.72;;;40.45;;
33690;SDS011;20026;50.058;18.428;2023-12-20T14:02:14;141.88;;;89.38;;
33690;SDS011;20026;50.058;18.428;2023-12-20T14:04:41;168.38;;;88.53;;
33690;SDS011;20026;50.058;18.428;2023-12-20T14:07:07;70.72;;;35.95;;
33690;SDS011;20026;50.058;18.428;2023-12-20T14:09:35;75.68;;;35.65;;
33690;SDS011;20026;50.058;18.428;2023-12-20T14:12:01;68.13;;;34.97;;
33690;SDS011;20026;50.058;18.428;2023-12-20T14:14:27;68.40;;;36.67;;
33690;SDS011;20026;50.058;18.428;2023-12-20T14:16:53;159.90;;;60.30;;
33690;SDS011;20026;50.058;18.428;2023-12-20T14:19:19;59.10;;;33.78;;
33690;SDS011;20026;50.058;18.428;2023-12-20T14:21:45;135.02;;;55.78;;
33690;SDS011;20026;50.058;18.428;2023-12-20T14:24:12;69.68;;;37.97;;
33690;SDS011;20026;50.058;18.428;2023-12-20T14:26:40;119.20;;;68.80;;
33690;SDS011;20026;50.058;18.428;2023-12-20T14:29:06;194.88;;;84.25;;
33690;SDS011;20026;50.058;18.428;2023-12-20T14:31:33;172.07;;;72.15;;
33690;SDS011;20026;50.058;18.428;2023-12-20T14:33:59;218.77;;;107.65;;
33690;SDS011;20026;50.058;18.428;2023-12-20T14:36:28;291.55;;;112.22;;
33690;SDS011;20026;50.058;18.428;2023-12-20T14:38:58;104.85;;;48.13;;
33690;SDS011;20026;50.058;18.428;2023-12-20T14:41:24;142.55;;;64.80;;
33690;SDS011;20026;50.058;18.428;2023-12-20T14:43:50;150.95;;;67.70;;
33690;SDS011;20026;50.058;18.428;2023-12-20T14:46:18;132.45;;;57.65;;
33690;SDS011;20026;50.058;18.428;2023-12-20T14:48:44;192.70;;;75.22;;
33690;SDS011;20026;50.058;18.428;2023-12-20T14:51:10;176.43;;;69.32;;
33690;SDS011;20026;50.058;18.428;2023-12-20T14:53:38;138.40;;;56.38;;
33690;SDS011;20026;50.058;18.428;2023-12-20T14:56:04;73.45;;;39.58;;
33690;SDS011;20026;50.058;18.428;2023-12-20T14:58:31;90.82;;;43.13;;
33690;SDS011;20026;50.058;18.428;2023-12-20T15:00:57;126.88;;;56.20;;
33690;SDS011;20026;50.058;18.428;2023-12-20T15:03:23;106.72;;;52.78;;
33690;SDS011;20026;50.058;18.428;2023-12-20T15:05:49;100.78;;;49.88;;
33690;SDS011;20026;50.058;18.428;2023-12-20T15:08:15;184.35;;;76.22;;
33690;SDS011;20026;50.058;18.428;2023-12-20T15:10:41;75.60;;;43.78;;
33690;SDS011;20026;50.058;18.428;2023-12-20T15:13:07;85.95;;;46.95;;
33690;SDS011;20026;50.058;18.428;2023-12-20T15:15:33;83.25;;;45.10;;
33690;SDS011;20026;50.058;18.428;2023-12-20T15:18:00;91.60;;;48.95;;
33690;SDS011;20026;50.058;18.428;2023-12-20T15:20:28;142.70;;;76.23;;
33690;SDS011;20026;50.058;18.428;2023-12-20T15:22:54;138.77;;;77.25;;
33690;SDS011;20026;50.058;18.428;2023-12-20T15:25:23;183.93;;;91.63;;
33690;SDS011;20026;50.058;18.428;2023-12-20T15:27:50;232.30;;;94.57;;
33690;SDS011;20026;50.058;18.428;2023-12-20T15:30:19;151.10;;;72.70;;
33690;SDS011;20026;50.058;18.428;2023-12-20T15:32:45;128.13;;;59.47;;
33690;SDS011;20026;50.058;18.428;2023-12-20T15:35:11;113.50;;;52.95;;
33690;SDS011;20026;50.058;18.428;2023-12-20T15:37:38;103.15;;;57.65;;
33690;SDS011;20026;50.058;18.428;2023-12-20T15:52:05;153.45;;;65.63;;
33690;SDS011;20026;50.058;18.428;2023-12-20T15:54:33;69.30;;;48.67;;
33690;SDS011;20026;50.058;18.428;2023-12-20T15:59:30;49.75;;;29.10;;
33690;SDS011;20026;50.058;18.428;2023-12-20T16:01:56;57.17;;;37.25;;
33690;SDS011;20026;50.058;18.428;2023-12-20T16:04:22;99.28;;;68.50;;
33690;SDS011;20026;50.058;18.428;2023-12-20T16:06:49;104.22;;;75.25;;
33690;SDS011;20026;50.058;18.428;2023-12-20T16:09:15;37.90;;;24.60;;
33690;SDS011;20026;50.058;18.428;2023-12-20T16:11:45;88.05;;;60.78;;
33690;SDS011;20026;50.058;18.428;2023-12-20T16:14:20;61.28;;;36.75;;
33690;SDS011;20026;50.058;18.428;2023-12-20T16:16:47;67.82;;;33.83;;
33690;SDS011;20026;50.058;18.428;2023-12-20T16:19:14;158.77;;;71.90;;
33690;SDS011;20026;50.058;18.428;2023-12-20T16:21:41;49.53;;;27.30;;
33690;SDS011;20026;50.058;18.428;2023-12-20T16:24:07;79.07;;;40.17;;
33690;SDS011;20026;50.058;18.428;2023-12-20T16:26:35;46.08;;;29.48;;
33690;SDS011;20026;50.058;18.428;2023-12-20T16:29:04;27.92;;;19.35;;
33690;SDS011;20026;50.058;18.428;2023-12-20T16:31:31;32.85;;;18.63;;
33690;SDS011;20026;50.058;18.428;2023-12-20T16:33:57;68.22;;;38.95;;
33690;SDS011;20026;50.058;18.428;2023-12-20T16:36:25;55.47;;;37.58;;
33690;SDS011;20026;50.058;18.428;2023-12-20T16:38:52;53.45;;;35.17;;
33690;SDS011;20026;50.058;18.428;2023-12-20T16:41:19;40.10;;;25.40;;
33690;SDS011;20026;50.058;18.428;2023-12-20T16:43:45;139.27;;;64.00;;
33690;SDS011;20026;50.058;18.428;2023-12-20T16:46:14;44.08;;;24.15;;
33690;SDS011;20026;50.058;18.428;2023-12-20T16:48:41;43.67;;;26.00;;
33690;SDS011;20026;50.058;18.428;2023-12-20T16:51:07;92.22;;;46.55;;
33690;SDS011;20026;50.058;18.428;2023-12-20T16:53:35;269.27;;;127.05;;
33690;SDS011;20026;50.058;18.428;2023-12-20T16:56:05;66.55;;;33.85;;
33690;SDS011;20026;50.058;18.428;2023-12-20T16:58:32;178.02;;;84.97;;
33690;SDS011;20026;50.058;18.428;2023-12-20T17:01:02;97.18;;;63.40;;
33690;SDS011;20026;50.058;18.428;2023-12-20T17:03:34;79.63;;;36.65;;
33690;SDS011;20026;50.058;18.428;2023-12-20T17:06:01;103.03;;;35.90;;
33690;SDS011;20026;50.058;18.428;2023-12-20T17:08:27;110.40;;;37.80;;
33690;SDS011;20026;50.058;18.428;2023-12-20T17:10:54;55.22;;;27.65;;
33690;SDS011;20026;50.058;18.428;2023-12-20T17:13:21;67.15;;;32.20;;
33690;SDS011;20026;50.058;18.428;2023-12-20T17:15:47;129.23;;;47.65;;
33690;SDS011;20026;50.058;18.428;2023-12-20T17:18:13;120.47;;;55.70;;
33690;SDS011;20026;50.058;18.428;2023-12-20T17:20:39;44.33;;;24.45;;
33690;SDS011;20026;50.058;18.428;2023-12-20T17:23:05;176.02;;;76.70;;
33690;SDS011;20026;50.058;18.428;2023-12-20T17:25:31;99.28;;;49.45;;
33690;SDS011;20026;50.058;18.428;2023-12-20T17:27:59;122.28;;;59.38;;
33690;SDS011;20026;50.058;18.428;2023-12-20T17:30:25;96.30;;;48.08;;
33690;SDS011;20026;50.058;18.428;2023-12-20T17:32:51;38.88;;;24.58;;
33690;SDS011;20026;50.058;18.428;2023-12-20T17:35:17;40.65;;;24.25;;
33690;SDS011;20026;50.058;18.428;2023-12-20T17:37:45;32.38;;;19.10;;
33690;SDS011;20026;50.058;18.428;2023-12-20T17:40:11;30.60;;;19.05;;
33690;SDS011;20026;50.058;18.428;2023-12-20T17:42:37;25.20;;;14.90;;
33690;SDS011;20026;50.058;18.428;2023-12-20T17:45:03;27.02;;;17.98;;
33690;SDS011;20026;50.058;18.428;2023-12-20T17:47:29;38.40;;;22.90;;
33690;SDS011;20026;50.058;18.428;2023-12-20T17:49:55;51.72;;;35.20;;
33690;SDS011;20026;50.058;18.428;2023-12-20T17:52:21;40.17;;;20.35;;
33690;SDS011;20026;50.058;18.428;2023-12-20T17:54:47;48.95;;;23.38;;
33690;SDS011;20026;50.058;18.428;2023-12-20T17:57:13;74.75;;;29.70;;
33690;SDS011;20026;50.058;18.428;2023-12-20T17:59:39;43.95;;;20.33;;
33690;SDS011;20026;50.058;18.428;2023-12-20T18:02:06;52.85;;;23.58;;
33690;SDS011;20026;50.058;18.428;2023-12-20T18:04:32;42.78;;;20.92;;
33690;SDS011;20026;50.058;18.428;2023-12-20T18:06:58;36.78;;;18.08;;
33690;SDS011;20026;50.058;18.428;2023-12-20T18:09:24;62.63;;;28.65;;
33690;SDS011;20026;50.058;18.428;2023-12-20T18:11:51;55.83;;;21.88;;
33690;SDS011;20026;50.058;18.428;2023-12-20T18:14:17;55.95;;;30.55;;
33690;SDS011;20026;50.058;18.428;2023-12-20T18:16:43;77.80;;;30.83;;
33690;SDS011;20026;50.058;18.428;2023-12-20T18:19:09;61.15;;;27.25;;
33690;SDS011;20026;50.058;18.428;2023-12-20T18:21:36;34.47;;;16.45;;
33690;SDS011;20026;50.058;18.428;2023-12-20T18:24:02;56.08;;;20.70;;
33690;SDS011;20026;50.058;18.428;2023-12-20T18:26:28;47.15;;;20.98;;
33690;SDS011;20026;50.058;18.428;2023-12-20T18:29:00;39.22;;;17.70;;
33690;SDS011;20026;50.058;18.428;2023-12-20T18:31:27;57.88;;;26.00;;
33690;SDS011;20026;50.058;18.428;2023-12-20T18:33:53;51.72;;;21.83;;
33690;SDS011;20026;50.058;18.428;2023-12-20T18:36:19;32.25;;;17.75;;
33690;SDS011;20026;50.058;18.428;2023-12-20T18:38:45;58.33;;;29.25;;
33690;SDS011;20026;50.058;18.428;2023-12-20T18:41:11;35.05;;;18.80;;
33690;SDS011;20026;50.058;18.428;2023-12-20T18:43:40;30.13;;;16.92;;
33690;SDS011;20026;50.058;18.428;2023-12-20T18:46:06;44.85;;;25.00;;
33690;SDS011;20026;50.058;18.428;2023-12-20T18:48:32;49.63;;;28.02;;
33690;SDS011;20026;50.058;18.428;2023-12-20T18:50:59;34.28;;;18.45;;
33690;SDS011;20026;50.058;18.428;2023-12-20T18:53:25;42.10;;;24.88;;
33690;SDS011;20026;50.058;18.428;2023-12-20T18:55:51;48.55;;;27.48;;
33690;SDS011;20026;50.058;18.428;2023-12-20T18:58:17;35.47;;;15.93;;
33690;SDS011;20026;50.058;18.428;2023-12-20T19:00:43;38.35;;;14.65;;
33690;SDS011;20026;50.058;18.428;2023-12-20T19:03:09;32.20;;;14.73;;
33690;SDS011;20026;50.058;18.428;2023-12-20T19:05:38;40.97;;;16.92;;
33690;SDS011;20026;50.058;18.428;2023-12-20T19:08:04;34.37;;;17.53;;
33690;SDS011;20026;50.058;18.428;2023-12-20T19:10:30;25.63;;;12.90;;
33690;SDS011;20026;50.058;18.428;2023-12-20T19:12:56;28.02;;;14.35;;
33690;SDS011;20026;50.058;18.428;2023-12-20T19:15:22;20.40;;;10.23;;
33690;SDS011;20026;50.058;18.428;2023-12-20T19:17:48;26.02;;;13.77;;
33690;SDS011;20026;50.058;18.428;2023-12-20T19:20:14;22.58;;;13.52;;
33690;SDS011;20026;50.058;18.428;2023-12-20T19:22:40;24.58;;;15.68;;
33690;SDS011;20026;50.058;18.428;2023-12-20T19:25:06;45.92;;;25.63;;
33690;SDS011;20026;50.058;18.428;2023-12-20T19:27:33;30.13;;;18.40;;
33690;SDS011;20026;50.058;18.428;2023-12-20T19:29:59;32.35;;;17.30;;
33690;SDS011;20026;50.058;18.428;2023-12-20T19:32:26;39.50;;;19.80;;
33690;SDS011;20026;50.058;18.428;2023-12-20T19:34:52;28.58;;;14.63;;
33690;SDS011;20026;50.058;18.428;2023-12-20T19:37:18;35.53;;;16.92;;
33690;SDS011;20026;50.058;18.428;2023-12-20T19:39:44;44.42;;;18.35;;
33690;SDS011;20026;50.058;18.428;2023-12-20T19:42:11;51.63;;;21.80;;
33690;SDS011;20026;50.058;18.428;2023-12-20T19:44:37;45.50;;;17.65;;
33690;SDS011;20026;50.058;18.428;2023-12-20T19:47:03;34.80;;;13.80;;
33690;SDS011;20026;50.058;18.428;2023-12-20T19:49:29;31.17;;;16.17;;
33690;SDS011;20026;50.058;18.428;2023-12-20T19:51:55;29.42;;;12.35;;
33690;SDS011;20026;50.058;18.428;2023-12-20T19:54:21;47.65;;;24.05;;
33690;SDS011;20026;50.058;18.428;2023-12-20T19:56:47;23.05;;;10.02;;
33690;SDS011;20026;50.058;18.428;2023-12-20T19:59:13;32.17;;;12.27;;
33690;SDS011;20026;50.058;18.428;2023-12-20T20:07:35;34.67;;;12.82;;
33690;SDS011;20026;50.058;18.428;2023-12-20T20:10:03;34.00;;;14.73;;
33690;SDS011;20026;50.058;18.428;2023-12-20T20:12:35;50.80;;;24.85;;
33690;SDS011;20026;50.058;18.428;2023-12-20T20:15:02;47.17;;;27.25;;
33690;SDS011;20026;50.058;18.428;2023-12-20T20:17:29;66.47;;;31.92;;
33690;SDS011;20026;50.058;18.428;2023-12-20T20:19:55;42.35;;;22.63;;
33690;SDS011;20026;50.058;18.428;2023-12-20T20:22:26;23.85;;;13.35;;
33690;SDS011;20026;50.058;18.428;2023-12-20T20:24:53;27.98;;;15.23;;
33690;SDS011;20026;50.058;18.428;2023-12-20T20:27:20;30.75;;;17.10;;
33690;SDS011;20026;50.058;18.428;2023-12-20T20:29:50;31.05;;;16.40;;
33690;SDS011;20026;50.058;18.428;2023-12-20T20:32:16;21.10;;;10.55;;
33690;SDS011;20026;50.058;18.428;2023-12-20T20:34:43;26.48;;;17.63;;
33690;SDS011;20026;50.058;18.428;2023-12-20T20:37:10;28.17;;;14.65;;
33690;SDS011;20026;50.058;18.428;2023-12-20T20:39:38;29.77;;;13.25;;
33690;SDS011;20026;50.058;18.428;2023-12-20T20:42:04;18.67;;;9.43;;
33690;SDS011;20026;50.058;18.428;2023-12-20T20:44:30;22.33;;;11.45;;
33690;SDS011;20026;50.058;18.428;2023-12-20T20:46:57;23.67;;;10.82;;
33690;SDS011;20026;50.058;18.428;2023-12-20T20:49:24;29.25;;;15.35;;
33690;SDS011;20026;50.058;18.428;2023-12-20T20:51:51;23.33;;;11.75;;
33690;SDS011;20026;50.058;18.428;2023-12-20T20:54:18;28.02;;;16.98;;
33690;SDS011;20026;50.058;18.428;2023-12-20T20:56:45;31.92;;;15.18;;
33690;SDS011;20026;50.058;18.428;2023-12-20T20:59:13;35.15;;;18.50;;
33690;SDS011;20026;50.058;18.428;2023-12-20T21:01:40;184.77;;;108.78;;
33690;SDS011;20026;50.058;18.428;2023-12-20T21:04:08;265.83;;;185.43;;
33690;SDS011;20026;50.058;18.428;2023-12-20T21:06:41;38.90;;;21.02;;
33690;SDS011;20026;50.058;18.428;2023-12-20T21:09:08;59.90;;;49.75;;
33690;SDS011;20026;50.058;18.428;2023-12-20T21:11:35;28.35;;;14.25;;
33690;SDS011;20026;50.058;18.428;2023-12-20T21:14:03;28.33;;;16.40;;
33690;SDS011;20026;50.058;18.428;2023-12-20T21:16:30;15.55;;;8.80;;
33690;SDS011;20026;50.058;18.428;2023-12-20T21:18:59;13.90;;;8.63;;
33690;SDS011;20026;50.058;18.428;2023-12-20T21:21:28;25.60;;;14.90;;
33690;SDS011;20026;50.058;18.428;2023-12-20T21:23:54;14.80;;;8.63;;
33690;SDS011;20026;50.058;18.428;2023-12-20T21:26:21;120.30;;;58.75;;
33690;SDS011;20026;50.058;18.428;2023-12-20T21:28:48;37.90;;;20.65;;
33690;SDS011;20026;50.058;18.428;2023-12-20T21:31:15;30.30;;;16.38;;
33690;SDS011;20026;50.058;18.428;2023-12-20T21:33:42;19.70;;;11.55;;
33690;SDS011;20026;50.058;18.428;2023-12-20T21:36:09;16.85;;;10.23;;
33690;SDS011;20026;50.058;18.428;2023-12-20T21:38:45;25.13;;;12.68;;
33690;SDS011;20026;50.058;18.428;2023-12-20T21:41:12;34.08;;;16.13;;
33690;SDS011;20026;50.058;18.428;2023-12-20T21:43:40;67.20;;;46.13;;
33690;SDS011;20026;50.058;18.428;2023-12-20T21:46:08;26.58;;;13.80;;
33690;SDS011;20026;50.058;18.428;2023-12-20T21:48:35;21.80;;;12.95;;
33690;SDS011;20026;50.058;18.428;2023-12-20T21:51:02;34.08;;;14.80;;
33690;SDS011;20026;50.058;18.428;2023-12-20T21:53:29;31.27;;;13.23;;
33690;SDS011;20026;50.058;18.428;2023-12-20T21:55:56;62.42;;;24.13;;
33690;SDS011;20026;50.058;18.428;2023-12-20T21:58:23;53.55;;;22.50;;
33690;SDS011;20026;50.058;18.428;2023-12-20T22:00:52;56.15;;;21.90;;
33690;SDS011;20026;50.058;18.428;2023-12-20T22:03:20;55.03;;;20.85;;
33690;SDS011;20026;50.058;18.428;2023-12-20T22:05:46;35.72;;;13.73;;
33690;SDS011;20026;50.058;18.428;2023-12-20T22:08:14;31.58;;;12.73;;
33690;SDS011;20026;50.058;18.428;2023-12-20T22:10:42;39.53;;;16.95;;
33690;SDS011;20026;50.058;18.428;2023-12-20T22:13:09;22.77;;;11.40;;
33690;SDS011;20026;50.058;18.428;2023-12-20T22:15:39;46.85;;;19.25;;
33690;SDS011;20026;50.058;18.428;2023-12-20T22:18:06;37.38;;;18.88;;
33690;SDS011;20026;50.058;18.428;2023-12-20T22:20:34;24.17;;;11.82;;
33690;SDS011;20026;50.058;18.428;2023-12-20T22:23:10;24.60;;;10.05;;
33690;SDS011;20026;50.058;18.428;2023-12-20T22:25:37;19.48;;;10.48;;
33690;SDS011;20026;50.058;18.428;2023-12-20T22:28:04;17.90;;;8.32;;
33690;SDS011;20026;50.058;18.428;2023-12-20T22:30:33;16.27;;;9.00;;
33690;SDS011;20026;50.058;18.428;2023-12-20T22:33:00;19.15;;;9.35;;
33690;SDS011;20026;50.058;18.428;2023-12-20T22:35:30;17.58;;;9.27;;
33690;SDS011;20026;50.058;18.428;2023-12-20T22:37:57;24.30;;;14.95;;
33690;SDS011;20026;50.058;18.428;2023-12-20T22:40:24;32.08;;;17.60;;
33690;SDS011;20026;50.058;18.428;2023-12-20T22:42:52;14.73;;;8.38;;
33690;SDS011;20026;50.058;18.428;2023-12-20T22:45:23;18.23;;;9.77;;